createdAt,value
2019-03-31T00:01:44.304Z,10.50
2019-03-31T00:04:14.544Z,11.20
2019-03-31T00:06:44.718Z,12.60
2019-03-31T00:09:14.805Z,13.00
2019-03-31T00:11:44.866Z,13.53
2019-03-31T00:14:15.119Z,13.27
2019-03-31T00:16:45.224Z,15.53
2019-03-31T00:19:15.341Z,15.00
2019-03-31T00:21:45.555Z,15.50
2019-03-31T00:24:15.624Z,15.72
2019-03-31T00:26:45.663Z,16.90
2019-03-31T00:29:15.780Z,15.20
2019-03-31T00:31:45.973Z,15.50
2019-03-31T00:34:16.314Z,17.02
2019-03-31T00:36:46.470Z,13.58
2019-03-31T00:39:16.512Z,14.87
2019-03-31T00:41:46.565Z,14.38
2019-03-31T00:44:16.789Z,14.73
2019-03-31T00:46:46.933Z,13.85
2019-03-31T00:49:16.987Z,13.35
2019-03-31T00:51:47.030Z,12.58
2019-03-31T00:54:17.435Z,12.40
2019-03-31T00:56:47.753Z,12.58
2019-03-31T00:59:17.913Z,11.60
2019-03-31T01:01:51.846Z,11.73
2019-03-31T01:04:24.105Z,12.65
2019-03-31T01:06:55.532Z,11.78
2019-03-31T01:09:31.133Z,12.30
2019-03-31T01:12:02.434Z,13.03
2019-03-31T01:14:32.907Z,11.63
2019-03-31T01:17:03.114Z,12.60
2019-03-31T01:19:33.555Z,12.68
2019-03-31T01:22:03.672Z,12.88
2019-03-31T01:24:33.770Z,12.88
2019-03-31T01:27:06.213Z,12.88
2019-03-31T01:29:36.384Z,12.78
2019-03-31T01:32:06.405Z,13.58
2019-03-31T01:34:36.480Z,15.23
2019-03-31T01:37:06.645Z,14.73
2019-03-31T01:39:36.965Z,14.50
2019-03-31T01:42:07.262Z,15.25
2019-03-31T01:44:37.350Z,14.10
2019-03-31T01:47:07.613Z,13.65
2019-03-31T01:49:37.675Z,14.38
2019-03-31T01:52:07.680Z,15.10
2019-03-31T01:54:37.753Z,13.88
2019-03-31T01:57:08.221Z,13.03
2019-03-31T01:59:38.404Z,12.63
2019-03-31T02:02:10.944Z,12.40
2019-03-31T02:04:41.080Z,12.93
2019-03-31T02:07:11.226Z,13.35
2019-03-31T02:09:41.309Z,13.15
2019-03-31T02:12:11.315Z,14.03
2019-03-31T02:14:41.796Z,15.72
2019-03-31T02:17:11.825Z,15.28
2019-03-31T02:19:41.878Z,14.40
2019-03-31T02:22:11.931Z,15.20
2019-03-31T02:24:42.042Z,14.35
2019-03-31T02:27:12.104Z,13.90
2019-03-31T02:29:42.353Z,13.98
2019-03-31T02:32:23.314Z,15.48
2019-03-31T02:34:44.236Z,14.93
2019-03-31T02:37:14.381Z,14.20
2019-03-31T02:39:44.610Z,14.30
2019-03-31T02:42:14.693Z,14.80
2019-03-31T02:44:44.797Z,13.03
2019-03-31T02:47:14.844Z,13.85
2019-03-31T02:49:44.972Z,13.15
2019-03-31T02:52:15.044Z,13.35
2019-03-31T02:54:45.328Z,13.00
2019-03-31T02:57:16.074Z,13.20
2019-03-31T02:59:46.456Z,13.83
2019-03-31T03:02:16.955Z,13.53
2019-03-31T03:04:49.423Z,12.60
2019-03-31T03:07:20.396Z,13.30
2019-03-31T03:09:51.761Z,13.72
2019-03-31T03:12:22.986Z,13.38
2019-03-31T03:14:56.926Z,14.65
2019-03-31T03:17:26.971Z,13.32
2019-03-31T03:19:57.160Z,13.05
2019-03-31T03:22:27.284Z,12.63
2019-03-31T03:24:57.419Z,13.28
2019-03-31T03:27:27.558Z,13.40
2019-03-31T03:29:57.833Z,13.65
2019-03-31T03:33:12.191Z,13.10
2019-03-31T03:35:17.349Z,12.68
2019-03-31T03:37:47.489Z,12.13
2019-03-31T03:40:17.546Z,13.20
2019-03-31T03:42:47.800Z,13.32
2019-03-31T03:45:17.891Z,12.63
2019-03-31T03:47:48.004Z,13.20
2019-03-31T03:50:18.060Z,12.82
2019-03-31T03:52:48.568Z,14.10
2019-03-31T03:55:18.634Z,14.05
2019-03-31T03:57:49.080Z,13.35
2019-03-31T04:00:19.133Z,12.40
2019-03-31T04:02:49.304Z,13.60
2019-03-31T04:05:19.560Z,11.88
2019-03-31T04:07:49.657Z,12.90
2019-03-31T04:11:15.268Z,12.20
2019-03-31T04:13:45.497Z,12.78
2019-03-31T04:16:15.548Z,13.30
2019-03-31T04:18:45.963Z,15.05
2019-03-31T04:21:16.000Z,13.55
2019-03-31T04:23:46.105Z,14.07
2019-03-31T04:26:16.394Z,14.13
2019-03-31T04:28:46.509Z,13.93
2019-03-31T04:31:16.781Z,13.98
2019-03-31T04:33:51.244Z,13.80
2019-03-31T04:36:19.178Z,13.78
2019-03-31T04:38:49.442Z,13.58
2019-03-31T04:41:19.618Z,13.60
2019-03-31T04:43:49.686Z,15.08
2019-03-31T04:46:19.798Z,12.68
2019-03-31T04:48:50.269Z,13.03
2019-03-31T04:51:20.754Z,13.83
2019-03-31T04:53:50.882Z,13.95
2019-03-31T04:56:20.921Z,13.40
2019-03-31T04:58:51.304Z,12.65
2019-03-31T05:01:22.041Z,13.20
2019-03-31T05:04:03.841Z,13.45
2019-03-31T05:06:23.977Z,12.10
2019-03-31T05:08:54.088Z,12.70
2019-03-31T05:11:24.150Z,13.60
2019-03-31T05:13:54.328Z,13.22
2019-03-31T05:16:24.354Z,14.03
2019-03-31T05:18:54.419Z,12.75
2019-03-31T05:21:24.525Z,13.13
2019-03-31T05:24:20.082Z,13.55
2019-03-31T05:26:50.732Z,13.03
2019-03-31T05:29:20.917Z,12.25
2019-03-31T05:31:51.044Z,12.35
2019-03-31T05:34:38.984Z,13.68
2019-03-31T05:37:09.017Z,12.95
2019-03-31T05:39:39.237Z,12.43
2019-03-31T05:42:09.290Z,13.30
2019-03-31T05:44:39.372Z,12.88
2019-03-31T05:47:09.467Z,15.03
2019-03-31T05:49:39.736Z,13.50
2019-03-31T05:55:50.729Z,14.75
2019-03-31T05:58:20.922Z,14.60
2019-03-31T06:00:51.543Z,16.45
2019-03-31T06:03:21.581Z,17.50
2019-03-31T06:05:52.286Z,14.65
2019-03-31T06:08:22.629Z,14.33
2019-03-31T06:10:52.800Z,12.80
2019-03-31T06:13:22.987Z,13.48
2019-03-31T06:15:53.304Z,12.58
2019-03-31T06:18:23.377Z,11.53
2019-03-31T06:20:53.613Z,12.88
2019-03-31T06:23:23.754Z,12.25
2019-03-31T06:26:11.303Z,12.75
2019-03-31T06:28:41.371Z,11.30
2019-03-31T06:31:11.522Z,12.07
2019-03-31T06:33:41.625Z,12.88
2019-03-31T06:36:11.683Z,12.15
2019-03-31T06:38:41.992Z,12.28
2019-03-31T06:41:12.001Z,13.15
2019-03-31T06:43:42.161Z,12.35
2019-03-31T06:46:12.354Z,11.95
2019-03-31T06:48:42.504Z,12.03
2019-03-31T06:51:13.000Z,13.45
2019-03-31T06:53:43.235Z,13.40
2019-03-31T06:56:13.346Z,11.43
2019-03-31T06:58:43.465Z,13.40
2019-03-31T07:01:13.572Z,12.63
2019-03-31T07:03:43.635Z,12.30
2019-03-31T07:06:14.308Z,11.97
2019-03-31T07:08:44.542Z,11.50
2019-03-31T07:11:14.766Z,12.57
2019-03-31T07:14:02.581Z,12.73
2019-03-31T07:16:32.693Z,13.77
2019-03-31T07:19:02.829Z,11.87
2019-03-31T07:21:32.848Z,12.27
2019-03-31T07:24:02.967Z,12.37
2019-03-31T07:26:33.093Z,13.37
2019-03-31T07:29:03.515Z,12.77
2019-03-31T07:31:33.633Z,12.57
2019-03-31T07:34:03.727Z,12.50
2019-03-31T07:36:33.878Z,12.30
2019-03-31T07:39:05.478Z,13.10
2019-03-31T07:41:36.161Z,13.00
2019-03-31T07:44:06.604Z,12.87
2019-03-31T07:46:37.106Z,12.80
2019-03-31T07:49:07.200Z,12.33
2019-03-31T07:51:37.650Z,13.40
2019-03-31T07:54:09.027Z,12.43
2019-03-31T07:56:56.656Z,13.33
2019-03-31T07:59:44.592Z,12.67
2019-03-31T08:02:14.807Z,13.63
2019-03-31T08:04:49.824Z,12.40
2019-03-31T08:07:19.944Z,12.20
2019-03-31T08:09:49.989Z,12.90
2019-03-31T08:12:20.129Z,12.70
2019-03-31T08:14:50.266Z,12.57
2019-03-31T08:17:20.741Z,13.00
2019-03-31T08:19:50.878Z,13.10
2019-03-31T08:22:20.933Z,12.47
2019-03-31T08:24:51.258Z,12.93
2019-03-31T08:27:21.429Z,12.00
2019-03-31T08:30:00.150Z,12.50
2019-03-31T08:32:23.383Z,12.30
2019-03-31T08:34:53.538Z,13.63
2019-03-31T08:37:23.595Z,12.47
2019-03-31T08:39:53.947Z,12.73
2019-03-31T08:42:24.417Z,13.23
2019-03-31T08:44:54.568Z,11.73
2019-03-31T08:47:25.015Z,13.03
2019-03-31T08:49:55.032Z,13.73
2019-03-31T08:52:25.167Z,12.47
2019-03-31T08:54:55.298Z,12.77
2019-03-31T08:57:25.396Z,12.33
2019-03-31T08:59:55.428Z,12.53
2019-03-31T09:02:34.587Z,13.10
2019-03-31T09:05:06.858Z,11.87
2019-03-31T09:07:36.972Z,12.37
2019-03-31T09:10:08.547Z,13.50
2019-03-31T09:12:39.606Z,13.13
2019-03-31T09:15:10.979Z,12.50
2019-03-31T09:17:41.129Z,14.10
2019-03-31T09:20:12.737Z,12.90
2019-03-31T09:22:42.877Z,13.47
2019-03-31T09:25:13.147Z,14.00
2019-03-31T09:27:43.360Z,14.10
2019-03-31T09:30:15.450Z,14.63
2019-03-31T09:32:46.345Z,15.60
2019-03-31T09:35:16.731Z,14.73
2019-03-31T09:37:46.833Z,14.73
2019-03-31T09:40:19.388Z,15.50
2019-03-31T09:42:49.853Z,14.90
2019-03-31T09:45:19.901Z,14.80
2019-03-31T09:47:50.021Z,13.73
2019-03-31T09:50:20.342Z,14.87
2019-03-31T09:52:50.457Z,13.73
2019-03-31T09:55:23.030Z,14.17
2019-03-31T09:57:52.449Z,13.03
2019-03-31T10:00:45.574Z,14.20
2019-03-31T10:03:15.937Z,15.20
2019-03-31T10:05:47.941Z,14.90
2019-03-31T10:08:21.356Z,15.77
2019-03-31T10:10:49.750Z,15.00
2019-03-31T10:13:19.986Z,17.70
2019-03-31T10:15:50.270Z,16.83
2019-03-31T10:18:20.423Z,17.00
2019-03-31T10:20:50.575Z,17.57
2019-03-31T10:23:20.650Z,17.47
2019-03-31T10:25:51.146Z,18.43
2019-03-31T10:28:21.297Z,19.30
2019-03-31T10:30:51.412Z,18.03
2019-03-31T10:33:21.544Z,18.63
2019-03-31T10:35:51.661Z,19.63
2019-03-31T10:38:21.779Z,20.63
2019-03-31T10:40:52.101Z,19.03
2019-03-31T10:43:22.138Z,18.77
2019-03-31T10:45:52.476Z,18.63
2019-03-31T10:48:22.690Z,19.07
2019-03-31T10:50:52.813Z,18.47
2019-03-31T10:53:22.965Z,19.00
2019-03-31T10:55:53.336Z,19.10
2019-03-31T10:58:23.764Z,19.13
2019-03-31T11:00:54.104Z,21.00
2019-03-31T11:03:24.161Z,21.10
2019-03-31T11:05:54.334Z,21.30
2019-03-31T11:08:24.646Z,21.63
2019-03-31T11:10:54.809Z,21.20
2019-03-31T11:13:24.913Z,19.00
2019-03-31T11:15:57.483Z,18.90
2019-03-31T11:18:26.792Z,17.63
2019-03-31T11:20:58.701Z,17.23
2019-03-31T11:23:30.584Z,13.73
2019-03-31T11:26:03.800Z,12.87
2019-03-31T11:28:33.909Z,13.53
2019-03-31T11:31:04.341Z,11.60
2019-03-31T11:33:34.361Z,9.00
2019-03-31T11:36:04.659Z,8.23
2019-03-31T11:38:34.863Z,12.40
2019-03-31T11:41:04.911Z,12.10
2019-03-31T11:43:35.381Z,10.07
2019-03-31T11:46:05.440Z,8.07
2019-03-31T11:48:35.489Z,8.63
2019-03-31T11:51:05.580Z,6.80
2019-03-31T11:53:35.744Z,7.20
2019-03-31T11:56:05.905Z,7.20
2019-03-31T11:58:36.401Z,6.90
2019-03-31T12:01:06.543Z,8.43
2019-03-31T12:03:36.719Z,11.30
2019-03-31T12:06:07.295Z,10.60
2019-03-31T12:08:37.964Z,12.03
2019-03-31T12:11:08.016Z,11.13
2019-03-31T12:13:38.265Z,12.07
2019-03-31T12:16:08.331Z,11.13
2019-03-31T12:18:38.485Z,11.70
2019-03-31T12:21:08.561Z,11.73
2019-03-31T12:23:38.812Z,12.30
2019-03-31T12:26:09.360Z,11.10
2019-03-31T12:28:39.402Z,12.37
2019-03-31T12:31:09.519Z,11.53
2019-03-31T12:33:39.802Z,11.40
2019-03-31T12:36:09.921Z,11.30
2019-03-31T12:38:40.069Z,11.47
2019-03-31T12:41:10.102Z,11.60
2019-03-31T12:43:40.238Z,10.90
2019-03-31T12:46:10.352Z,11.50
2019-03-31T12:48:40.538Z,11.70
2019-03-31T12:51:10.613Z,11.20
2019-03-31T12:53:40.716Z,11.00
2019-03-31T12:56:10.877Z,11.40
2019-03-31T12:58:40.959Z,10.97
2019-03-31T13:01:10.963Z,12.27
2019-03-31T13:03:41.096Z,11.47
2019-03-31T13:06:11.264Z,11.17
2019-03-31T13:08:41.383Z,11.43
2019-03-31T13:11:11.555Z,11.60
2019-03-31T13:13:41.610Z,11.40
2019-03-31T13:16:12.186Z,11.43
2019-03-31T13:18:42.416Z,11.37
2019-03-31T13:21:12.719Z,11.50
2019-03-31T13:23:42.717Z,12.33
2019-03-31T13:26:12.765Z,10.97
2019-03-31T13:28:42.852Z,11.20
2019-03-31T13:31:13.062Z,11.03
2019-03-31T13:33:43.174Z,11.37
2019-03-31T13:36:13.595Z,10.60
2019-03-31T13:38:43.824Z,10.67
2019-03-31T13:41:13.898Z,9.10
2019-03-31T13:43:44.005Z,11.17
2019-03-31T13:46:14.069Z,10.00
2019-03-31T13:48:44.065Z,9.83
2019-03-31T13:51:14.090Z,9.90
2019-03-31T13:53:44.096Z,10.30
2019-03-31T13:56:14.566Z,11.23
2019-03-31T13:58:52.297Z,11.13
2019-03-31T14:01:17.109Z,11.07
2019-03-31T14:03:47.320Z,11.30
2019-03-31T14:06:18.970Z,10.20
2019-03-31T14:08:49.185Z,11.00
2019-03-31T14:11:21.656Z,9.77
2019-03-31T14:13:51.066Z,9.30
2019-03-31T14:16:21.112Z,10.63
2019-03-31T14:18:51.233Z,9.53
2019-03-31T14:21:21.586Z,9.27
2019-03-31T14:23:51.629Z,9.60
2019-03-31T14:26:22.053Z,9.20
2019-03-31T14:28:52.156Z,8.97
2019-03-31T14:31:22.291Z,8.20
2019-03-31T14:33:52.499Z,8.23
2019-03-31T14:36:22.628Z,7.80
2019-03-31T14:38:52.769Z,9.20
2019-03-31T14:41:23.306Z,10.03
2019-03-31T14:43:53.674Z,9.57
2019-03-31T14:46:23.992Z,10.00
2019-03-31T14:48:54.203Z,9.90
2019-03-31T14:51:24.424Z,9.17
2019-03-31T14:53:54.598Z,9.40
2019-03-31T14:56:24.859Z,8.17
2019-03-31T14:58:55.103Z,8.23
2019-03-31T15:01:25.250Z,9.90
2019-03-31T15:03:55.505Z,9.83
2019-03-31T15:06:25.650Z,10.17
2019-03-31T15:08:55.890Z,9.53
2019-03-31T15:11:25.999Z,9.30
2019-03-31T15:13:56.178Z,10.57
2019-03-31T15:16:26.237Z,10.00
2019-03-31T15:18:56.444Z,9.77
2019-03-31T15:21:27.014Z,10.40
2019-03-31T15:23:57.210Z,10.30
2019-03-31T15:26:27.303Z,10.40
2019-03-31T15:28:57.489Z,9.90
2019-03-31T15:31:27.634Z,9.57
2019-03-31T15:33:57.747Z,9.70
2019-03-31T15:36:27.791Z,9.70
2019-03-31T15:39:08.092Z,11.87
2019-03-31T15:41:29.653Z,10.13
2019-03-31T15:44:00.001Z,10.10
2019-03-31T15:46:30.151Z,9.70
2019-03-31T15:49:00.264Z,10.97
2019-03-31T15:51:30.339Z,9.63
2019-03-31T15:54:00.396Z,9.53
2019-03-31T15:56:30.479Z,9.70
2019-03-31T15:59:00.652Z,9.47
2019-03-31T16:01:33.800Z,8.80
2019-03-31T16:04:04.036Z,9.40
2019-03-31T16:06:34.377Z,8.30
2019-03-31T16:09:05.288Z,8.83
2019-03-31T16:11:34.886Z,8.30
2019-03-31T16:14:04.442Z,8.40
2019-03-31T16:17:05.567Z,8.43
2019-03-31T16:19:35.346Z,7.80
2019-03-31T16:22:04.907Z,7.80
2019-03-31T16:24:40.413Z,9.37
2019-03-31T16:27:10.107Z,7.90
2019-03-31T16:29:39.698Z,7.03
2019-03-31T16:32:09.240Z,6.93
2019-03-31T16:34:38.797Z,7.00
2019-03-31T16:37:08.309Z,7.10
2019-03-31T16:39:38.216Z,6.70
2019-03-31T16:42:08.055Z,7.60
2019-03-31T16:44:37.650Z,7.30
2019-03-31T16:47:07.193Z,6.77
2019-03-31T16:49:36.739Z,7.80
2019-03-31T16:52:06.260Z,7.70
2019-03-31T16:54:35.848Z,7.30
2019-03-31T16:57:05.679Z,6.60
2019-03-31T16:59:35.242Z,6.23
2019-03-31T17:02:05.193Z,7.33
2019-03-31T17:04:34.774Z,7.10
2019-03-31T17:07:04.409Z,7.40
2019-03-31T17:09:33.962Z,7.87
2019-03-31T17:12:03.501Z,6.40
2019-03-31T17:14:33.142Z,6.40
2019-03-31T17:17:02.730Z,6.70
2019-03-31T17:19:32.728Z,6.70
2019-03-31T17:22:02.188Z,6.23
2019-03-31T17:24:32.028Z,6.80
2019-03-31T17:27:01.625Z,7.33
2019-03-31T17:29:31.416Z,6.93
2019-03-31T17:32:00.904Z,6.80
2019-03-31T17:34:30.409Z,6.97
2019-03-31T17:37:00.154Z,6.40
2019-03-31T17:39:29.703Z,7.23
2019-03-31T17:41:59.508Z,6.53
2019-03-31T17:44:29.047Z,6.33
2019-03-31T17:46:58.726Z,7.03
2019-03-31T17:49:28.217Z,6.27
2019-03-31T17:52:01.042Z,7.00
2019-03-31T17:54:29.239Z,6.60
2019-03-31T17:56:58.736Z,7.07
2019-03-31T17:59:28.663Z,7.40
2019-03-31T18:01:58.292Z,7.90
2019-03-31T18:04:27.742Z,8.00
2019-03-31T18:06:57.423Z,9.10
2019-03-31T18:09:27.040Z,8.60
2019-03-31T18:11:56.974Z,9.13
2019-03-31T18:14:26.611Z,9.73
2019-03-31T18:16:56.243Z,9.50
2019-03-31T18:19:25.709Z,10.70
2019-03-31T18:21:55.289Z,10.07
2019-03-31T18:24:24.857Z,8.10
2019-03-31T18:26:54.412Z,7.57
2019-03-31T18:29:24.171Z,7.90
2019-03-31T18:31:53.715Z,7.30
2019-03-31T18:34:23.257Z,7.10
2019-03-31T18:36:53.021Z,7.80
2019-03-31T18:39:22.498Z,7.73
2019-03-31T18:41:52.034Z,6.53
2019-03-31T18:44:21.749Z,8.60
2019-03-31T18:46:51.472Z,8.67
2019-03-31T18:49:21.136Z,9.20
2019-03-31T18:51:50.672Z,10.40
2019-03-31T18:54:29.577Z,9.60
2019-03-31T18:57:23.926Z,9.50
2019-03-31T19:00:14.596Z,9.53
2019-03-31T19:03:03.125Z,9.20
2019-03-31T19:05:44.505Z,8.60
2019-03-31T19:08:39.478Z,8.70
2019-03-31T19:11:33.795Z,7.97
2019-03-31T19:14:22.537Z,8.67
2019-03-31T19:17:20.359Z,9.27
2019-03-31T19:20:05.209Z,9.37
2019-03-31T19:22:49.560Z,9.87
2019-03-31T19:25:31.242Z,8.90
2019-03-31T19:28:14.081Z,9.13
2019-03-31T19:30:56.341Z,9.50
2019-03-31T19:33:43.748Z,9.10
2019-03-31T19:36:38.192Z,9.67
2019-03-31T19:39:27.696Z,9.00
2019-03-31T19:42:25.499Z,7.10
2019-03-31T19:45:22.838Z,7.70
2019-03-31T19:48:14.001Z,7.80
2019-03-31T19:51:02.875Z,8.67
2019-03-31T19:53:49.983Z,8.00
2019-03-31T19:56:38.477Z,7.87
2019-03-31T19:59:25.732Z,7.97
2019-03-31T20:02:17.005Z,8.33
2019-03-31T20:04:54.338Z,8.60
2019-03-31T20:07:48.962Z,8.40
2019-03-31T20:10:43.388Z,8.17
2019-03-31T20:13:38.016Z,8.47
2019-03-31T20:16:13.530Z,9.57
2019-03-31T20:19:20.330Z,11.60
2019-03-31T20:22:08.779Z,11.00
2019-03-31T20:24:56.813Z,10.73
2019-03-31T20:27:51.038Z,9.90
2019-03-31T20:30:42.542Z,9.30
2019-03-31T20:33:29.759Z,9.60
2019-03-31T20:36:16.921Z,9.33
2019-03-31T20:39:10.322Z,8.50
2019-03-31T20:42:01.894Z,8.43
2019-03-31T20:44:31.442Z,9.80
2019-03-31T20:47:01.409Z,9.47
2019-03-31T20:49:30.961Z,9.33
2019-03-31T20:52:00.660Z,10.60
2019-03-31T20:54:32.934Z,10.10
2019-03-31T20:57:01.497Z,9.23
2019-03-31T20:59:31.594Z,10.20
2019-03-31T21:02:01.302Z,9.77
2019-03-31T21:04:30.853Z,9.23
2019-03-31T21:07:00.418Z,9.53
2019-03-31T21:09:38.782Z,9.13
2019-03-31T21:12:01.331Z,9.20
2019-03-31T21:14:30.893Z,10.07
2019-03-31T21:17:00.499Z,9.90
2019-03-31T21:19:30.053Z,10.17
2019-03-31T21:21:59.626Z,12.57
2019-03-31T21:24:29.296Z,15.63
2019-03-31T21:26:58.912Z,13.77
2019-03-31T21:29:28.485Z,10.80
2019-03-31T21:31:58.052Z,12.40
2019-03-31T21:34:28.304Z,10.10
2019-03-31T21:36:57.874Z,10.57
2019-03-31T21:39:27.527Z,10.70
2019-03-31T21:41:57.017Z,10.63
2019-03-31T21:44:26.589Z,9.77
2019-03-31T21:46:56.200Z,10.57
2019-03-31T21:49:25.833Z,10.70
2019-03-31T21:51:55.331Z,11.90
2019-03-31T21:54:24.915Z,11.60
2019-03-31T21:56:54.361Z,11.30
2019-03-31T21:59:24.003Z,11.40
2019-03-31T22:01:53.534Z,11.13
2019-03-31T22:04:23.065Z,11.30
2019-03-31T22:06:52.530Z,11.50
2019-03-31T22:09:22.155Z,9.93
2019-03-31T22:11:51.658Z,11.00
2019-03-31T22:14:21.288Z,10.80
2019-03-31T22:16:50.765Z,10.80
2019-03-31T22:19:20.261Z,10.03
2019-03-31T22:21:50.090Z,11.53
2019-03-31T22:24:19.631Z,13.10
2019-03-31T22:26:49.114Z,17.83
2019-03-31T22:29:18.781Z,16.40
2019-03-31T22:32:06.513Z,18.40
2019-03-31T22:34:36.064Z,18.30
2019-03-31T22:37:05.525Z,16.73
2019-03-31T22:39:35.068Z,14.23
2019-03-31T22:42:05.039Z,15.20
2019-03-31T22:44:37.798Z,16.27
2019-03-31T22:47:07.187Z,14.07
2019-03-31T22:49:36.840Z,13.87
2019-03-31T22:52:06.338Z,15.00
2019-03-31T22:54:35.822Z,15.13
2019-03-31T22:57:05.642Z,16.63
2019-03-31T22:59:35.110Z,17.10
2019-03-31T23:02:04.521Z,15.87
2019-03-31T23:04:34.052Z,18.17
2019-03-31T23:07:03.567Z,18.20
2019-03-31T23:09:34.518Z,18.10
2019-03-31T23:12:04.190Z,21.20
2019-03-31T23:14:33.655Z,18.90
2019-03-31T23:17:03.371Z,19.83
2019-03-31T23:19:32.816Z,21.13
2019-03-31T23:22:02.331Z,21.70
2019-03-31T23:24:31.845Z,22.57
2019-03-31T23:27:01.326Z,23.50
2019-03-31T23:29:30.805Z,23.93
2019-03-31T23:32:00.482Z,23.27
2019-03-31T23:34:30.054Z,23.83
2019-03-31T23:36:59.513Z,24.00
2019-03-31T23:39:29.081Z,26.63
2019-03-31T23:41:58.642Z,27.47
2019-03-31T23:44:28.055Z,25.30
2019-03-31T23:46:57.936Z,26.73
2019-03-31T23:49:27.391Z,27.70
2019-03-31T23:51:56.831Z,26.87
2019-03-31T23:54:26.438Z,26.77
2019-03-31T23:56:55.961Z,26.77
2019-03-31T23:59:25.393Z,28.00
